LFMLLOWS

Guest
Details From LFML - Marseille/provence
To LOWS - Salzburg Maxglan
Flight Number -
Tags Generated
Created
Modified
Stats Distance 419 nm / 776 km
Max Altitude 0 ft / 0 m
Waypoints 3
Social Downloads 0
Likes 0
Share VATSIM

Download

Looking for another format? Having issues loading an existing format? Contact us
Advertisement - Login to hide

Notes

Generated

Route

LFML UNKEN LOWS

ID Type Via Altitude Latitude Longitude Leg Dist Tot Dist Heading (true) Name
O LFML APT - 0 ft / 0 m 43.44093˚ 5.20362˚ - 0 nm - -
UNKEN FIX - 0 ft / 0 m 47.69014˚ 12.69687˚ 405 nm 405 nm 48° / 54° -
O LOWS APT - 0 ft / 0 m 47.80472˚ 12.99717˚ 13 nm 419 nm 60° / 61° -

Altitude Profile

Advertisement - Login to hide

Weather


0- 5 10 15 20 25 30 35+ Temperature / ° C

Clouds and Precipitation
Forecast for 2017-12-13 12:00 UTC. Updated 23 minutes ago

Ground ~20,000 ft ~40,000 ft Winds

LFML

Details ICAO LFML (MRS)
Name Marseille Provence
Region France
Timezone Europe/Paris (UTC+1.0)
Stats Elevation 74 ft / 23 m (AMSL)
Location 43.435892° 5.213282°
Runways 2
Magnetic Variation 1.552° E

METAR

LFML 131130Z AUTO 00000KT CAVOK 07/00 Q1021 NOSIG

Decode

TAF

TAF TAF LFML 130800Z 1309/1415 12005KT CAVOK BECMG 1314/1315 BKN048 BECMG 1317/1319 BKN022 TEMPO 1321/1324 -RA BECMG 1323/1324 VRB02KT BECMG 1402/1404 CAVOK BECMG 1413/1414 25010KT TX09/1315Z TN07/1405Z

Decode

Departure Runways

ID Width Length Bearing (true) Bearing (mag) Surface Threshold Offset Overrun Length
13L 148 ft / 45 m 11,478 ft / 3,499 m 133.99° 132.44° Asphalt 1,115 ft / 340 m 0 ft / 0 m
13R 148 ft / 45 m 7,981 ft / 2,433 m 134.90° 133.35° Asphalt 0 ft / 0 m 0 ft / 0 m
31L 148 ft / 45 m 7,981 ft / 2,433 m 314.91° 313.36° Asphalt 344 ft / 105 m 0 ft / 0 m
31R 148 ft / 45 m 11,478 ft / 3,499 m 314.01° 312.46° Asphalt 2,165 ft / 660 m 0 ft / 0 m

LOWS

Details ICAO LOWS (SZG)
Name Salzburg Maxglan
Region Austria
Timezone Europe/Vienna (UTC+1.0)
Stats Elevation 1,411 ft / 430 m (AMSL)
Location 47.793333° 13.004333°
Runways 1
Magnetic Variation 3.427° E

METAR

LOWS 131120Z 15006KT CAVOK 03/M01 Q1016 NOSIG

Decode

TAF

TAF LOWS 130515Z 1306/1406 15005KT CAVOK TX03/1312Z TNM03/1306Z PROB30 TEMPO 1306/1308 0500 FZBCFG NSC BECMG 1318/1320 9999 FEW080 BKN100 PROB30 TEMPO 1400/1406 -FZRA FEW030 BKN050

Decode

Destination Runways

ID Width Length Bearing (true) Bearing (mag) Surface Threshold Offset Overrun Length
16 148 ft / 45 m 9,024 ft / 2,751 m 157.08° 153.65° Concrete 656 ft / 200 m 0 ft / 0 m
34 148 ft / 45 m 9,024 ft / 2,751 m 337.09° 333.66° Concrete 787 ft / 240 m 0 ft / 0 m

Approach Navaids

Runway Type Ident Frequency Range Bearing (true) Bearing (mag) Slope Elevation
16 Localiser OES 109.90 MHz 18 nm / 33 km 157.53° 154.11° - 1,411 ft / 430 m (AMSL)
16 Glidescope OES 109.90 MHz 10 nm / 19 km 157.09° 153.66° 3.00° 1,446 ft / 441 m (AMSL)
16 DME OES 109.90 MHz 18 nm / 33 km - - - 1,446 ft / 441 m (AMSL)

Popular Alternatives